createdAt,value
2022-12-15T00:00:28.246Z,44.00
2022-12-15T00:03:13.647Z,44.00
2022-12-15T00:05:59.223Z,44.10
2022-12-15T00:08:44.476Z,44.00
2022-12-15T00:11:29.858Z,44.10
2022-12-15T00:14:15.287Z,44.00
2022-12-15T00:17:00.603Z,44.00
2022-12-15T00:19:46.084Z,44.10
2022-12-15T00:22:31.362Z,44.10
2022-12-15T00:25:16.825Z,44.00
2022-12-15T00:28:02.143Z,44.10
2022-12-15T00:30:50.089Z,44.10
2022-12-15T00:33:35.962Z,44.10
2022-12-15T00:36:21.393Z,44.10
2022-12-15T00:38:48.169Z,44.00
2022-12-15T00:41:15.675Z,44.00
2022-12-15T00:43:42.323Z,44.10
2022-12-15T00:46:27.708Z,44.00
2022-12-15T00:48:54.476Z,44.10
2022-12-15T00:51:21.173Z,44.00
2022-12-15T00:54:06.635Z,43.90
2022-12-15T00:56:51.821Z,44.00
2022-12-15T00:59:37.249Z,44.00
2022-12-15T01:02:22.694Z,44.00
2022-12-15T01:05:08.162Z,43.90
2022-12-15T01:07:53.706Z,44.00
2022-12-15T01:10:38.628Z,44.00
2022-12-15T01:13:24.026Z,44.00
2022-12-15T01:16:09.512Z,44.00
2022-12-15T01:18:54.754Z,44.00
2022-12-15T01:21:24.744Z,44.00
2022-12-15T01:23:52.029Z,44.00
2022-12-15T01:26:18.809Z,44.00
2022-12-15T01:28:45.466Z,44.20
2022-12-15T01:31:12.312Z,44.00
2022-12-15T01:33:39.673Z,44.00
2022-12-15T01:36:06.546Z,44.00
2022-12-15T01:38:33.293Z,44.10
2022-12-15T01:41:01.288Z,44.00
2022-12-15T01:43:30.000Z,44.00
2022-12-15T01:46:09.262Z,44.10
2022-12-15T01:48:47.090Z,44.00
2022-12-15T01:51:43.153Z,44.00
2022-12-15T01:54:10.664Z,44.00
2022-12-15T01:56:38.735Z,44.00
2022-12-15T01:59:05.543Z,44.00
2022-12-15T02:01:32.266Z,44.00
2022-12-15T02:03:59.062Z,43.90
2022-12-15T02:06:25.791Z,44.60
2022-12-15T02:08:52.889Z,43.90
2022-12-15T02:11:24.944Z,43.90
2022-12-15T02:13:55.769Z,43.90
2022-12-15T02:16:25.565Z,43.90
2022-12-15T02:18:52.258Z,44.00
2022-12-15T02:21:24.739Z,43.90
2022-12-15T02:23:57.582Z,43.90
2022-12-15T02:26:44.511Z,44.00
2022-12-15T02:29:17.371Z,43.90
2022-12-15T02:31:52.278Z,44.00
2022-12-15T02:34:19.057Z,44.00
2022-12-15T02:36:47.679Z,44.00
2022-12-15T02:39:14.449Z,43.90
2022-12-15T02:41:41.902Z,44.00
2022-12-15T02:44:08.581Z,44.00
2022-12-15T02:46:38.353Z,44.00
2022-12-15T02:49:14.234Z,44.00
2022-12-15T02:51:55.056Z,44.00
2022-12-15T02:54:24.574Z,44.00
2022-12-15T02:57:03.998Z,44.00
2022-12-15T02:59:38.086Z,44.60
2022-12-15T03:02:06.163Z,44.00
2022-12-15T03:04:37.272Z,44.00
2022-12-15T03:07:04.814Z,44.10
2022-12-15T03:09:31.586Z,44.00
2022-12-15T03:11:58.262Z,44.00
2022-12-15T03:14:27.995Z,44.00
2022-12-15T03:16:54.814Z,44.00
2022-12-15T03:19:21.518Z,44.00
2022-12-15T03:21:48.191Z,44.00
2022-12-15T03:24:14.868Z,44.00
2022-12-15T03:26:41.565Z,44.00
2022-12-15T03:29:08.390Z,43.90
2022-12-15T03:31:35.104Z,43.90
2022-12-15T03:34:02.136Z,43.90
2022-12-15T03:36:28.828Z,43.90
2022-12-15T03:38:55.491Z,43.90
2022-12-15T03:41:22.229Z,44.00
2022-12-15T03:43:49.741Z,44.00
2022-12-15T03:46:16.805Z,44.00
2022-12-15T03:48:43.637Z,44.00
2022-12-15T03:51:10.593Z,44.00
2022-12-15T03:53:37.281Z,44.00
2022-12-15T03:56:04.024Z,44.00
2022-12-15T03:58:30.792Z,44.00
2022-12-15T04:00:57.574Z,44.00
2022-12-15T04:03:24.385Z,43.90
2022-12-15T04:05:51.216Z,44.00
2022-12-15T04:08:17.933Z,44.00
2022-12-15T04:10:44.705Z,44.00
2022-12-15T04:13:11.606Z,44.00
2022-12-15T04:15:38.707Z,44.00
2022-12-15T04:18:06.003Z,44.00
2022-12-15T04:20:33.225Z,43.90
2022-12-15T04:23:00.360Z,44.00
2022-12-15T04:25:45.878Z,44.00
2022-12-15T04:28:31.245Z,44.00
2022-12-15T04:31:20.548Z,44.00
2022-12-15T04:34:07.604Z,44.00
2022-12-15T04:36:53.417Z,44.00
2022-12-15T04:39:38.788Z,44.00
2022-12-15T04:42:24.189Z,44.00
2022-12-15T04:45:09.529Z,44.00
2022-12-15T04:47:54.675Z,43.90
2022-12-15T04:50:39.922Z,44.00
2022-12-15T04:53:26.310Z,43.90
2022-12-15T04:56:17.949Z,43.90
2022-12-15T04:59:03.876Z,44.00
2022-12-15T05:01:49.377Z,44.00
2022-12-15T05:04:34.949Z,44.00
2022-12-15T05:07:20.117Z,43.90
2022-12-15T05:10:09.627Z,44.00
2022-12-15T05:12:59.850Z,44.00
2022-12-15T05:15:45.185Z,44.00
2022-12-15T05:18:30.661Z,44.00
2022-12-15T05:21:19.351Z,44.00
2022-12-15T05:24:04.694Z,43.90
2022-12-15T05:26:52.880Z,43.90
2022-12-15T05:29:39.293Z,44.00
2022-12-15T05:32:06.656Z,44.00
2022-12-15T05:34:33.853Z,44.00
2022-12-15T05:37:01.005Z,44.00
2022-12-15T05:39:27.823Z,43.90
2022-12-15T05:41:54.705Z,44.00
2022-12-15T05:44:21.579Z,43.90
2022-12-15T05:46:48.330Z,44.10
2022-12-15T05:49:16.111Z,44.00
2022-12-15T05:51:43.366Z,44.00
2022-12-15T05:54:10.312Z,44.20
2022-12-15T05:56:37.084Z,44.10
2022-12-15T05:59:04.314Z,44.10
2022-12-15T06:01:31.563Z,44.20
2022-12-15T06:03:58.676Z,44.20
2022-12-15T06:06:25.525Z,44.20
2022-12-15T06:08:52.246Z,44.30
2022-12-15T06:11:19.087Z,44.30
2022-12-15T06:13:46.682Z,44.40
2022-12-15T06:16:14.695Z,44.50
2022-12-15T06:18:42.355Z,44.80
2022-12-15T06:21:09.998Z,44.30
2022-12-15T06:23:36.791Z,44.60
2022-12-15T06:26:09.833Z,44.70
2022-12-15T06:28:36.508Z,44.60
2022-12-15T06:31:04.250Z,44.60
2022-12-15T06:33:31.290Z,44.60
2022-12-15T06:36:01.559Z,44.80
2022-12-15T06:38:28.676Z,44.50
2022-12-15T06:40:55.916Z,44.60
2022-12-15T06:43:22.629Z,44.50
2022-12-15T06:45:50.027Z,44.50
2022-12-15T06:48:16.725Z,44.50
2022-12-15T06:50:43.621Z,44.50
2022-12-15T06:53:10.270Z,44.50
2022-12-15T06:55:36.962Z,44.40
2022-12-15T06:58:03.644Z,44.30
2022-12-15T07:00:30.377Z,44.40
2022-12-15T07:02:57.167Z,44.30
2022-12-15T07:05:24.023Z,44.30
2022-12-15T07:07:52.020Z,44.30
2022-12-15T07:10:18.684Z,44.30
2022-12-15T07:12:45.376Z,44.30
2022-12-15T07:15:12.121Z,44.30
2022-12-15T07:17:38.832Z,44.30
2022-12-15T07:20:05.703Z,44.30
2022-12-15T07:22:32.367Z,44.30
2022-12-15T07:24:59.018Z,44.30
2022-12-15T07:27:25.707Z,44.30
2022-12-15T07:29:52.544Z,44.30
2022-12-15T07:32:19.290Z,44.30
2022-12-15T07:34:45.976Z,44.30
2022-12-15T07:37:16.181Z,44.30
2022-12-15T07:39:43.301Z,44.30
2022-12-15T07:42:09.985Z,44.30
2022-12-15T07:44:36.689Z,44.30
2022-12-15T07:47:03.394Z,44.30
2022-12-15T07:49:30.070Z,44.30
2022-12-15T07:51:58.527Z,44.30
2022-12-15T07:54:25.299Z,44.30
2022-12-15T07:56:52.403Z,44.20
2022-12-15T07:59:19.862Z,44.30
2022-12-15T08:01:46.874Z,44.20
2022-12-15T08:04:13.709Z,44.20
2022-12-15T08:06:40.367Z,44.30
2022-12-15T08:09:07.870Z,44.20
2022-12-15T08:11:35.260Z,44.30
2022-12-15T08:14:04.069Z,44.20
2022-12-15T08:16:34.629Z,44.10
2022-12-15T08:19:01.566Z,44.20
2022-12-15T08:21:28.346Z,44.00
2022-12-15T08:23:55.170Z,44.00
2022-12-15T08:26:28.221Z,44.00
2022-12-15T08:29:11.812Z,43.90
2022-12-15T08:31:44.140Z,43.90
2022-12-15T08:34:11.053Z,44.00
2022-12-15T08:36:37.840Z,43.90
2022-12-15T08:39:04.524Z,44.00
2022-12-15T08:41:31.583Z,43.90
2022-12-15T08:43:58.640Z,44.00
2022-12-15T08:46:26.157Z,43.90
2022-12-15T08:48:53.026Z,43.90
2022-12-15T08:51:20.061Z,43.90
2022-12-15T08:53:47.112Z,44.00
2022-12-15T08:56:18.055Z,43.90
2022-12-15T08:58:47.899Z,43.90
2022-12-15T09:01:22.520Z,43.90
2022-12-15T09:03:50.630Z,43.90
2022-12-15T09:06:18.395Z,43.90
2022-12-15T09:08:45.132Z,43.90
2022-12-15T09:11:17.032Z,43.90
2022-12-15T09:13:43.728Z,43.90
2022-12-15T09:16:16.923Z,43.90
2022-12-15T09:18:44.296Z,43.90
2022-12-15T09:21:11.363Z,43.90
2022-12-15T09:23:38.099Z,43.80
2022-12-15T09:26:11.739Z,43.80
2022-12-15T09:28:38.580Z,43.80
2022-12-15T09:31:06.129Z,43.90
2022-12-15T09:33:33.276Z,43.80
2022-12-15T09:36:00.439Z,43.80
2022-12-15T09:38:27.147Z,43.70
2022-12-15T09:40:53.897Z,43.80
2022-12-15T09:43:34.337Z,43.80
2022-12-15T09:46:07.081Z,43.70
2022-12-15T09:48:40.007Z,43.80
2022-12-15T09:51:07.950Z,43.90
2022-12-15T09:56:21.722Z,43.80
2022-12-15T09:58:55.651Z,43.90
2022-12-15T10:01:37.966Z,43.80
2022-12-15T10:04:11.515Z,43.80
2022-12-15T10:06:43.581Z,43.80
2022-12-15T10:09:18.363Z,43.90
2022-12-15T10:12:01.101Z,43.90
2022-12-15T10:14:30.484Z,43.80
2022-12-15T10:17:00.137Z,43.90
2022-12-15T10:19:31.649Z,43.90
2022-12-15T10:21:58.287Z,43.90
2022-12-15T10:25:07.497Z,43.90
2022-12-15T10:27:23.843Z,43.80
2022-12-15T10:29:53.696Z,43.80
2022-12-15T10:32:42.998Z,43.90
2022-12-15T10:35:16.097Z,43.90
2022-12-15T10:37:42.778Z,43.80
2022-12-15T10:40:10.093Z,43.70
2022-12-15T10:42:45.032Z,44.40
2022-12-15T10:45:28.953Z,43.70
2022-12-15T10:48:06.816Z,43.70
2022-12-15T10:50:33.977Z,43.70
2022-12-15T10:53:00.668Z,43.70
2022-12-15T10:55:37.833Z,43.70
2022-12-15T10:58:07.760Z,43.70
2022-12-15T11:00:34.494Z,43.60
2022-12-15T11:03:01.488Z,43.60
2022-12-15T11:05:28.390Z,43.60
2022-12-15T11:07:55.689Z,43.60
2022-12-15T11:10:23.406Z,43.60
2022-12-15T11:13:08.389Z,43.60
2022-12-15T11:15:38.098Z,43.70
2022-12-15T11:18:11.368Z,43.60
2022-12-15T11:20:39.108Z,43.60
2022-12-15T11:23:09.979Z,43.60
2022-12-15T11:25:43.301Z,43.60
2022-12-15T11:28:11.690Z,43.60
2022-12-15T11:30:45.821Z,43.60
2022-12-15T11:33:12.479Z,43.60
2022-12-15T11:35:51.523Z,43.60
2022-12-15T11:38:24.981Z,43.60
2022-12-15T11:40:51.958Z,43.60
2022-12-15T11:43:35.204Z,43.60
2022-12-15T11:46:05.135Z,43.60
2022-12-15T11:48:40.764Z,43.60
2022-12-15T11:51:10.394Z,43.70
2022-12-15T11:53:56.214Z,43.70
2022-12-15T11:56:33.586Z,43.70
2022-12-15T11:59:07.239Z,43.70
2022-12-15T12:01:55.380Z,43.60
2022-12-15T12:04:26.392Z,43.70
2022-12-15T12:07:18.664Z,43.70
2022-12-15T12:09:45.302Z,43.70
2022-12-15T12:12:53.444Z,43.60
2022-12-15T12:15:40.376Z,43.70
2022-12-15T12:18:07.762Z,43.70
2022-12-15T12:20:38.796Z,43.60
2022-12-15T12:23:06.511Z,43.60
2022-12-15T12:25:45.388Z,43.50
2022-12-15T12:28:20.848Z,43.50
2022-12-15T12:33:39.039Z,43.50
2022-12-15T12:36:10.180Z,43.60
2022-12-15T12:38:39.089Z,43.50
2022-12-15T12:41:15.129Z,43.60
2022-12-15T12:43:43.249Z,43.50
2022-12-15T12:46:19.082Z,43.60
2022-12-15T12:48:48.528Z,43.50
2022-12-15T12:51:18.489Z,43.60
2022-12-15T12:53:45.157Z,43.60
2022-12-15T12:56:31.450Z,43.60
2022-12-15T12:58:58.122Z,43.60
2022-12-15T13:01:32.635Z,43.60
2022-12-15T13:04:10.211Z,43.60
2022-12-15T13:06:36.790Z,43.60
2022-12-15T13:09:21.626Z,43.60
2022-12-15T13:11:48.892Z,43.70
2022-12-15T13:14:22.538Z,43.40
2022-12-15T13:17:24.889Z,43.50
2022-12-15T13:19:57.469Z,43.50
2022-12-15T13:22:33.978Z,43.50
2022-12-15T13:25:00.829Z,43.50
2022-12-15T13:27:36.810Z,43.40
2022-12-15T13:30:03.491Z,43.50
2022-12-15T13:32:36.865Z,43.40
2022-12-15T13:35:09.373Z,43.40
2022-12-15T13:37:49.045Z,43.40
2022-12-15T13:40:35.289Z,43.40
2022-12-15T13:43:05.072Z,43.40
2022-12-15T13:45:40.556Z,43.40
2022-12-15T13:48:14.576Z,43.40
2022-12-15T13:50:44.488Z,43.40
2022-12-15T13:53:20.208Z,43.40
2022-12-15T13:55:55.581Z,43.40
2022-12-15T13:58:23.106Z,43.40
2022-12-15T14:00:53.822Z,43.40
2022-12-15T14:03:20.647Z,43.40
2022-12-15T14:05:51.352Z,43.40
2022-12-15T14:08:18.609Z,43.40
2022-12-15T14:10:49.119Z,43.40
2022-12-15T14:13:22.543Z,43.20
2022-12-15T14:15:51.274Z,43.10
2022-12-15T14:18:24.010Z,43.40
2022-12-15T14:20:50.695Z,42.80
2022-12-15T14:23:18.195Z,43.10
2022-12-15T14:25:52.412Z,43.00
2022-12-15T14:28:26.323Z,43.00
2022-12-15T14:30:53.072Z,42.00
2022-12-15T14:33:19.915Z,42.90
2022-12-15T14:35:49.677Z,43.00
2022-12-15T14:38:17.499Z,42.90
2022-12-15T14:40:44.189Z,43.00
2022-12-15T14:43:16.028Z,42.80
2022-12-15T14:45:42.776Z,42.90
2022-12-15T14:50:58.786Z,42.90
2022-12-15T14:53:25.475Z,43.00
2022-12-15T14:55:52.177Z,43.00
2022-12-15T14:58:25.251Z,43.00
2022-12-15T15:00:52.629Z,43.00
2022-12-15T15:03:16.101Z,43.60
2022-12-15T15:03:25.177Z,42.90
2022-12-15T15:05:54.218Z,43.00
2022-12-15T15:08:24.261Z,42.90
2022-12-15T15:10:53.830Z,43.00
2022-12-15T15:13:21.639Z,43.00
2022-12-15T15:15:52.527Z,42.80
2022-12-15T15:18:20.316Z,43.00
2022-12-15T15:20:50.026Z,43.00
2022-12-15T15:23:17.578Z,42.90
2022-12-15T15:25:57.161Z,43.00
2022-12-15T15:28:25.074Z,43.00
2022-12-15T15:30:51.882Z,42.90
2022-12-15T15:33:23.601Z,42.90
2022-12-15T15:35:54.541Z,43.00
2022-12-15T15:38:39.740Z,42.90
2022-12-15T15:41:15.763Z,42.90
2022-12-15T15:43:42.601Z,42.90
2022-12-15T15:46:32.812Z,43.00
2022-12-15T15:49:03.265Z,43.10
2022-12-15T15:51:30.410Z,42.80
2022-12-15T15:54:00.877Z,42.90
2022-12-15T15:56:27.766Z,42.90
2022-12-15T15:58:54.570Z,43.00
2022-12-15T16:01:26.365Z,42.80
2022-12-15T16:03:53.993Z,43.00
2022-12-15T16:06:21.211Z,42.90
2022-12-15T16:08:51.696Z,41.80
2022-12-15T16:11:18.680Z,42.80
2022-12-15T16:13:45.703Z,42.80
2022-12-15T16:16:18.174Z,42.80
2022-12-15T16:18:45.160Z,42.80
2022-12-15T16:21:15.437Z,42.80
2022-12-15T16:23:45.301Z,42.50
2022-12-15T16:26:13.794Z,42.40
2022-12-15T16:28:40.841Z,43.20
2022-12-15T16:31:24.961Z,43.10
2022-12-15T16:33:51.749Z,42.70
2022-12-15T16:36:18.972Z,43.50
2022-12-15T16:38:46.121Z,43.70
2022-12-15T16:41:13.332Z,43.90
2022-12-15T16:43:44.473Z,43.80
2022-12-15T16:46:16.808Z,43.80
2022-12-15T16:48:43.728Z,43.70
2022-12-15T16:51:13.031Z,43.70
2022-12-15T16:53:40.397Z,43.70
2022-12-15T16:56:07.844Z,43.80
2022-12-15T16:58:35.273Z,42.70
2022-12-15T17:01:02.574Z,41.90
2022-12-15T17:03:29.691Z,43.20
2022-12-15T17:05:57.623Z,43.80
2022-12-15T17:08:28.291Z,43.70
2022-12-15T17:10:55.519Z,43.90
2022-12-15T17:13:40.599Z,43.40
2022-12-15T17:16:13.716Z,43.60
2022-12-15T17:18:40.783Z,43.20
2022-12-15T17:21:10.625Z,43.40
2022-12-15T17:23:37.500Z,43.60
2022-12-15T17:28:51.354Z,43.60
2022-12-15T17:31:18.820Z,43.50
2022-12-15T17:33:45.990Z,43.10
2022-12-15T17:36:15.350Z,43.40
2022-12-15T17:38:42.218Z,43.60
2022-12-15T17:41:28.813Z,43.70
2022-12-15T17:44:24.047Z,43.70
2022-12-15T17:46:46.648Z,43.60
2022-12-15T17:49:13.619Z,43.60
2022-12-15T17:51:40.436Z,43.70
2022-12-15T17:54:08.615Z,43.70
2022-12-15T17:56:35.423Z,43.70
2022-12-15T17:59:06.486Z,43.90
2022-12-15T18:01:33.313Z,43.70
2022-12-15T18:04:00.318Z,43.60
2022-12-15T18:06:27.163Z,43.70
2022-12-15T18:08:54.944Z,43.70
2022-12-15T18:11:21.771Z,43.80
2022-12-15T18:13:48.532Z,43.60
2022-12-15T18:16:15.444Z,43.80
2022-12-15T18:18:43.519Z,43.60
2022-12-15T18:21:16.317Z,43.50
2022-12-15T18:23:44.693Z,43.70
2022-12-15T18:26:18.161Z,43.60
2022-12-15T18:28:45.359Z,43.70
2022-12-15T18:31:13.277Z,43.60
2022-12-15T18:33:40.587Z,43.70
2022-12-15T18:36:08.688Z,43.70
2022-12-15T18:38:35.485Z,43.60
2022-12-15T18:41:04.327Z,43.80
2022-12-15T18:43:32.588Z,43.60
2022-12-15T18:45:59.935Z,43.70
2022-12-15T18:48:27.834Z,43.70
2022-12-15T18:50:55.094Z,43.60
2022-12-15T18:53:29.981Z,43.70
2022-12-15T18:55:57.273Z,43.60
2022-12-15T18:58:24.928Z,43.70
2022-12-15T19:00:52.057Z,43.60
2022-12-15T19:03:19.952Z,43.70
2022-12-15T19:05:48.608Z,43.70
2022-12-15T19:08:20.855Z,43.60
2022-12-15T19:10:54.399Z,43.80
2022-12-15T19:13:25.869Z,43.80
2022-12-15T19:15:53.741Z,43.90
2022-12-15T19:18:40.692Z,43.80
2022-12-15T19:21:34.357Z,43.80
2022-12-15T19:24:02.040Z,43.90
2022-12-15T19:26:29.516Z,43.90
2022-12-15T19:28:58.145Z,43.90
2022-12-15T19:31:25.884Z,43.90
2022-12-15T19:33:54.310Z,43.80
2022-12-15T19:36:25.789Z,43.80
2022-12-15T19:38:54.738Z,43.90
2022-12-15T19:41:21.918Z,43.90
2022-12-15T19:43:49.526Z,43.80
2022-12-15T19:46:20.857Z,43.90
2022-12-15T19:48:51.098Z,43.90
2022-12-15T19:51:20.881Z,43.80
2022-12-15T19:53:48.531Z,43.90
2022-12-15T19:56:17.617Z,43.80
2022-12-15T19:58:45.308Z,43.90
2022-12-15T20:01:17.494Z,43.70
2022-12-15T20:03:45.846Z,43.90
2022-12-15T20:06:17.071Z,43.90
2022-12-15T20:08:45.651Z,44.40
2022-12-15T20:11:16.687Z,44.00
2022-12-15T20:13:43.657Z,43.90
2022-12-15T20:16:10.642Z,43.90
2022-12-15T20:18:37.692Z,43.90
2022-12-15T20:21:04.407Z,43.90
2022-12-15T20:23:31.975Z,43.90
2022-12-15T20:25:58.926Z,43.90
2022-12-15T20:28:26.562Z,43.90
2022-12-15T20:30:53.443Z,43.80
2022-12-15T20:33:20.191Z,44.00
2022-12-15T20:35:47.651Z,44.00
2022-12-15T20:38:19.362Z,44.00
2022-12-15T20:40:46.033Z,44.10
2022-12-15T20:43:17.230Z,44.00
2022-12-15T20:45:44.403Z,44.10
2022-12-15T20:48:11.772Z,44.10
2022-12-15T20:50:41.145Z,44.00
2022-12-15T20:53:14.901Z,44.00
2022-12-15T20:55:41.648Z,44.00
2022-12-15T20:58:08.309Z,44.00
2022-12-15T21:00:35.021Z,44.00
2022-12-15T21:03:02.305Z,43.90
2022-12-15T21:05:29.590Z,44.00
2022-12-15T21:07:56.249Z,43.80
2022-12-15T21:10:22.965Z,44.00
2022-12-15T21:12:49.707Z,43.90
2022-12-15T21:15:17.197Z,43.90
2022-12-15T21:17:43.937Z,43.90
2022-12-15T21:20:11.309Z,43.90
2022-12-15T21:22:37.984Z,43.80
2022-12-15T21:25:04.865Z,43.80
2022-12-15T21:27:31.533Z,43.80
2022-12-15T21:29:58.532Z,43.90
2022-12-15T21:32:25.497Z,43.90
2022-12-15T21:34:52.168Z,43.80
2022-12-15T21:37:26.679Z,43.80
2022-12-15T21:39:53.364Z,43.80
2022-12-15T21:42:21.166Z,43.80
2022-12-15T21:44:47.932Z,43.80
2022-12-15T21:47:46.545Z,43.80
2022-12-15T21:50:13.716Z,43.80
2022-12-15T21:52:40.385Z,43.80
2022-12-15T21:55:16.577Z,43.70
2022-12-15T21:57:43.767Z,43.80
2022-12-15T22:00:15.397Z,43.70
2022-12-15T22:02:43.339Z,43.70
2022-12-15T22:05:30.884Z,43.80
2022-12-15T22:07:57.843Z,43.70
2022-12-15T22:10:24.672Z,43.70
2022-12-15T22:12:57.421Z,43.70
2022-12-15T22:15:26.293Z,43.60
2022-12-15T22:17:52.960Z,43.70
2022-12-15T22:20:20.544Z,43.50
2022-12-15T22:22:47.355Z,43.70
2022-12-15T22:25:17.650Z,43.70
2022-12-15T22:27:44.705Z,43.60
2022-12-15T22:30:18.310Z,43.60
2022-12-15T22:32:45.116Z,43.70
2022-12-15T22:35:15.817Z,43.80
2022-12-15T22:37:42.700Z,43.70
2022-12-15T22:40:10.099Z,43.80
2022-12-15T22:42:37.078Z,43.70
2022-12-15T22:45:04.795Z,43.80
2022-12-15T22:47:31.435Z,43.80
2022-12-15T22:49:58.010Z,43.80
2022-12-15T22:52:24.602Z,43.70
2022-12-15T22:54:53.022Z,43.70
2022-12-15T22:57:25.320Z,43.80
2022-12-15T23:00:00.544Z,43.80
2022-12-15T23:02:28.158Z,43.70
2022-12-15T23:04:55.022Z,43.70
2022-12-15T23:07:21.603Z,43.70
2022-12-15T23:09:48.312Z,43.80
2022-12-15T23:12:14.965Z,43.70
2022-12-15T23:15:00.031Z,43.60
2022-12-15T23:17:26.662Z,43.70
2022-12-15T23:19:53.265Z,43.50
2022-12-15T23:22:19.971Z,43.60
2022-12-15T23:24:46.620Z,43.60
2022-12-15T23:27:13.556Z,43.60
2022-12-15T23:29:40.190Z,43.80
2022-12-15T23:32:06.813Z,43.60
2022-12-15T23:34:33.483Z,43.70
2022-12-15T23:37:00.899Z,43.60
2022-12-15T23:39:27.553Z,43.70
2022-12-15T23:41:54.211Z,43.70
2022-12-15T23:44:21.466Z,43.60
2022-12-15T23:46:48.291Z,43.60
2022-12-15T23:49:15.074Z,43.70
2022-12-15T23:51:41.725Z,43.60
2022-12-15T23:54:08.368Z,43.70
2022-12-15T23:56:34.995Z,43.60
2022-12-15T23:59:01.585Z,43.70
